Time;durP1;ratioP1;P1;durP2;ratioP2;P2;SDS_P1;SDS_P2;PMS_P1;PMS_P2;Temp;Humidity;BMP_temperature;BMP_pressure;BME280_temperature;BME280_humidity;BME280_pressure;Samples;Min_cycle;Max_cycle;Signal;HPM_P1;HPM_P2
2022/01/17 00:02:22;;;;;;;18.15;10.73;;;;;;;;;;6186449;23;20027;-64
2022/01/17 00:04:48;;;;;;;16.25;8.90;;;;;;;;;;6160126;23;20096;-65
2022/01/17 00:07:14;;;;;;;15.07;8.88;;;;;;;;;;6185784;23;19997;-65
2022/01/17 00:09:39;;;;;;;19.35;11.10;;;;;;;;;;6185840;23;20005;-65
2022/01/17 00:12:06;;;;;;;16.70;10.02;;;;;;;;;;6185817;23;20001;-65
2022/01/17 00:14:38;;;;;;;19.33;10.88;;;;;;;;;;6185987;23;20052;-65
2022/01/17 00:17:11;;;;;;;21.50;11.95;;;;;;;;;;6186001;23;20036;-64
2022/01/17 00:19:41;;;;;;;17.27;10.93;;;;;;;;;;6186149;23;20013;-65
2022/01/17 00:22:07;;;;;;;17.58;10.45;;;;;;;;;;6186230;23;20009;-65
2022/01/17 00:24:32;;;;;;;15.77;9.63;;;;;;;;;;6186110;23;20056;-64
2022/01/17 00:26:59;;;;;;;16.52;9.07;;;;;;;;;;6159598;23;20045;-64
2022/01/17 00:29:25;;;;;;;10.13;6.32;;;;;;;;;;6186266;23;19997;-64
2022/01/17 00:31:52;;;;;;;18.67;10.98;;;;;;;;;;6186102;23;20005;-64
2022/01/17 00:34:17;;;;;;;18.70;10.77;;;;;;;;;;6185958;23;20012;-64
2022/01/17 00:36:42;;;;;;;11.95;7.32;;;;;;;;;;6185903;23;20001;-64
2022/01/17 00:39:08;;;;;;;15.35;9.60;;;;;;;;;;6186003;23;19998;-64
2022/01/17 00:41:34;;;;;;;14.75;8.75;;;;;;;;;;6185520;23;20055;-64
2022/01/17 00:43:59;;;;;;;20.33;10.05;;;;;;;;;;6186037;23;20012;-64
2022/01/17 00:46:25;;;;;;;14.55;8.95;;;;;;;;;;6159763;23;20001;-65
2022/01/17 00:48:51;;;;;;;15.15;9.13;;;;;;;;;;6159154;23;20011;-65
2022/01/17 00:51:17;;;;;;;13.98;8.68;;;;;;;;;;6185775;23;20104;-64
2022/01/17 00:53:42;;;;;;;17.55;9.48;;;;;;;;;;6186013;23;20445;-65
2022/01/17 00:56:08;;;;;;;15.55;10.35;;;;;;;;;;6188104;23;19997;-65
2022/01/17 00:58:33;;;;;;;17.20;10.85;;;;;;;;;;6187890;23;20012;-64
2022/01/17 01:00:59;;;;;;;17.90;10.30;;;;;;;;;;6188082;23;20496;-65
2022/01/17 01:03:25;;;;;;;15.93;11.38;;;;;;;;;;6161669;23;20009;-65
2022/01/17 01:05:50;;;;;;;18.85;11.75;;;;;;;;;;6187633;23;20055;-65
2022/01/17 01:08:16;;;;;;;12.68;8.60;;;;;;;;;;6161499;23;20009;-65
2022/01/17 01:10:42;;;;;;;15.18;11.20;;;;;;;;;;6187483;23;20035;-65
2022/01/17 01:13:07;;;;;;;14.25;9.77;;;;;;;;;;6188042;23;20318;-65
2022/01/17 01:15:45;;;;;;;14.18;9.18;;;;;;;;;;6187259;23;19993;-65
2022/01/17 01:18:30;;;;;;;16.00;10.15;;;;;;;;;;6187730;23;20091;-65
2022/01/17 01:28:58;;;;;;;13.73;9.73;;;;;;;;;;6187614;23;20349;-64
2022/01/17 01:31:37;;;;;;;15.38;9.75;;;;;;;;;;6161236;23;20007;-64
2022/01/17 01:34:05;;;;;;;17.70;10.15;;;;;;;;;;6187414;23;20009;-64
2022/01/17 01:36:33;;;;;;;18.48;9.77;;;;;;;;;;6187415;23;20005;-64
2022/01/17 01:38:58;;;;;;;12.23;8.07;;;;;;;;;;6187113;23;20005;-64
2022/01/17 01:41:25;;;;;;;14.85;9.63;;;;;;;;;;6186561;23;20021;-65
2022/01/17 01:43:50;;;;;;;14.68;9.90;;;;;;;;;;6161077;23;20009;-64
2022/01/17 01:46:19;;;;;;;12.95;8.73;;;;;;;;;;6187380;23;20012;-64
2022/01/17 01:48:44;;;;;;;7.13;4.97;;;;;;;;;;6187374;23;20374;-64
2022/01/17 01:51:11;;;;;;;9.43;6.45;;;;;;;;;;6187475;23;20020;-64
2022/01/17 01:53:36;;;;;;;13.15;8.75;;;;;;;;;;6186956;23;20004;-64
2022/01/17 01:56:02;;;;;;;12.65;8.63;;;;;;;;;;6187164;23;19997;-64
2022/01/17 01:58:27;;;;;;;12.43;8.20;;;;;;;;;;6187538;23;20039;-64
2022/01/17 02:00:54;;;;;;;11.95;8.57;;;;;;;;;;6187194;23;20012;-64
2022/01/17 02:03:19;;;;;;;6.88;4.85;;;;;;;;;;6187210;23;20005;-64
2022/01/17 02:05:45;;;;;;;11.73;8.02;;;;;;;;;;6187127;23;20008;-65
2022/01/17 02:08:14;;;;;;;14.15;8.13;;;;;;;;;;6187326;23;20040;-65
2022/01/17 02:10:39;;;;;;;10.70;6.35;;;;;;;;;;6187061;23;20076;-64
2022/01/17 02:13:05;;;;;;;11.43;7.43;;;;;;;;;;6187457;23;20037;-64
2022/01/17 02:15:30;;;;;;;9.70;7.55;;;;;;;;;;6187040;23;20004;-64
2022/01/17 02:17:57;;;;;;;11.48;7.75;;;;;;;;;;6160605;23;20013;-64
2022/01/17 02:20:24;;;;;;;10.75;7.65;;;;;;;;;;6187173;23;20008;-65
2022/01/17 02:22:51;;;;;;;9.18;5.82;;;;;;;;;;6186952;23;20009;-65
2022/01/17 02:25:16;;;;;;;8.82;5.85;;;;;;;;;;6160347;23;20563;-65
2022/01/17 02:27:42;;;;;;;10.90;6.57;;;;;;;;;;6187258;23;20037;-64
2022/01/17 02:30:08;;;;;;;9.30;6.93;;;;;;;;;;6186982;23;19997;-64
2022/01/17 02:32:34;;;;;;;9.15;6.38;;;;;;;;;;6186846;23;20441;-65
2022/01/17 02:35:16;;;;;;;8.25;6.43;;;;;;;;;;6187027;23;20024;-65
2022/01/17 02:37:41;;;;;;;10.43;6.65;;;;;;;;;;6187493;23;20005;-65
2022/01/17 02:40:07;;;;;;;9.02;6.32;;;;;;;;;;6187087;23;20406;-64
2022/01/17 02:42:34;;;;;;;7.15;6.20;;;;;;;;;;6186518;23;20100;-65
2022/01/17 02:45:09;;;;;;;10.50;7.35;;;;;;;;;;6186723;23;20061;-65
2022/01/17 02:47:34;;;;;;;7.60;5.32;;;;;;;;;;6186525;23;20088;-64
2022/01/17 02:49:59;;;;;;;6.85;5.38;;;;;;;;;;6186537;23;20380;-64
2022/01/17 02:52:25;;;;;;;8.25;6.68;;;;;;;;;;6186990;23;20005;-64
2022/01/17 02:54:52;;;;;;;7.65;5.53;;;;;;;;;;6187165;23;19997;-64
2022/01/17 02:57:18;;;;;;;7.93;6.30;;;;;;;;;;6186641;23;20013;-64
2022/01/17 02:59:43;;;;;;;3.65;2.53;;;;;;;;;;6186946;23;20444;-65
2022/01/17 03:02:09;;;;;;;6.28;5.03;;;;;;;;;;6186776;23;20055;-64
2022/01/17 03:04:34;;;;;;;7.53;4.68;;;;;;;;;;6185785;23;20525;-65
2022/01/17 03:07:00;;;;;;;7.43;5.25;;;;;;;;;;6160474;23;20013;-64
2022/01/17 03:09:29;;;;;;;6.45;4.40;;;;;;;;;;6186420;23;20063;-65
2022/01/17 03:11:55;;;;;;;7.87;5.43;;;;;;;;;;6186354;23;20402;-65
2022/01/17 03:14:21;;;;;;;7.45;5.88;;;;;;;;;;6186207;23;20004;-65
2022/01/17 03:16:48;;;;;;;7.70;6.07;;;;;;;;;;6159982;23;20358;-64
2022/01/17 03:19:14;;;;;;;7.45;6.28;;;;;;;;;;6186706;23;20008;-65
2022/01/17 03:21:39;;;;;;;6.50;5.20;;;;;;;;;;6186870;23;20005;-65
2022/01/17 03:24:06;;;;;;;7.82;4.97;;;;;;;;;;6186324;23;19993;-64
2022/01/17 03:26:32;;;;;;;6.93;5.30;;;;;;;;;;6186564;23;20330;-65
2022/01/17 03:28:58;;;;;;;8.52;5.43;;;;;;;;;;6186622;23;19993;-65
2022/01/17 03:31:24;;;;;;;7.60;6.32;;;;;;;;;;6186266;23;20029;-65
2022/01/17 03:33:49;;;;;;;7.47;6.07;;;;;;;;;;6186433;23;20365;-63
2022/01/17 03:36:15;;;;;;;7.60;5.65;;;;;;;;;;6186523;23;20001;-63
2022/01/17 03:38:42;;;;;;;6.50;5.40;;;;;;;;;;6186242;23;20087;-63
2022/01/17 03:41:08;;;;;;;7.70;5.78;;;;;;;;;;6185770;23;20349;-63
2022/01/17 03:43:35;;;;;;;5.35;4.80;;;;;;;;;;6186253;23;20009;-63
2022/01/17 03:46:00;;;;;;;6.22;5.07;;;;;;;;;;6186363;23;20009;-63
2022/01/17 03:48:26;;;;;;;5.88;4.30;;;;;;;;;;6160049;23;20400;-62
2022/01/17 03:50:52;;;;;;;5.25;4.22;;;;;;;;;;6185945;23;20329;-63
2022/01/17 03:53:18;;;;;;;6.20;5.53;;;;;;;;;;6185859;23;20012;-63
2022/01/17 03:55:43;;;;;;;8.35;6.15;;;;;;;;;;6186116;23;20001;-63
2022/01/17 03:58:09;;;;;;;8.88;5.57;;;;;;;;;;6185492;23;20009;-63
2022/01/17 04:00:45;;;;;;;6.05;5.40;;;;;;;;;;6159871;23;20013;-65
2022/01/17 04:03:10;;;;;;;6.75;6.05;;;;;;;;;;6186445;23;20086;-64
2022/01/17 04:05:36;;;;;;;7.22;6.10;;;;;;;;;;6185931;23;20001;-70
2022/01/17 04:08:02;;;;;;;5.28;4.70;;;;;;;;;;6185582;23;20099;-70
2022/01/17 04:10:27;;;;;;;7.22;6.10;;;;;;;;;;6185779;23;20025;-63
2022/01/17 04:13:00;;;;;;;6.53;4.97;;;;;;;;;;6185870;23;20009;-69
2022/01/17 04:15:25;;;;;;;7.18;5.55;;;;;;;;;;6186004;23;20005;-69
2022/01/17 04:17:50;;;;;;;8.13;6.57;;;;;;;;;;6186048;23;20140;-69
2022/01/17 04:20:25;;;;;;;7.75;5.72;;;;;;;;;;6186121;23;20349;-69
2022/01/17 04:22:53;;;;;;;6.75;5.75;;;;;;;;;;6185933;23;20418;-70
2022/01/17 04:25:18;;;;;;;7.20;5.75;;;;;;;;;;6185934;23;20084;-70
2022/01/17 04:27:45;;;;;;;8.98;5.78;;;;;;;;;;6185412;23;20083;-70
2022/01/17 04:30:13;;;;;;;9.32;6.95;;;;;;;;;;6185695;23;20447;-70
2022/01/17 04:32:39;;;;;;;9.48;6.22;;;;;;;;;;6186043;23;20340;-69
2022/01/17 04:35:04;;;;;;;7.60;5.20;;;;;;;;;;6186074;23;20081;-70
2022/01/17 04:37:30;;;;;;;7.25;5.70;;;;;;;;;;6185865;23;20008;-70
2022/01/17 04:39:56;;;;;;;8.45;5.80;;;;;;;;;;6185674;23;20138;-70
2022/01/17 04:42:27;;;;;;;9.27;6.47;;;;;;;;;;6185545;23;20467;-70
2022/01/17 04:45:10;;;;;;;7.15;5.93;;;;;;;;;;6185912;23;20008;-70
2022/01/17 04:47:37;;;;;;;5.25;4.72;;;;;;;;;;6186039;23;20036;-70
2022/01/17 04:50:06;;;;;;;7.30;6.50;;;;;;;;;;6186134;23;20008;-70
2022/01/17 04:52:32;;;;;;;6.07;4.75;;;;;;;;;;6185414;23;20029;-70
2022/01/17 04:54:59;;;;;;;7.55;6.45;;;;;;;;;;6185645;23;20005;-70
2022/01/17 04:57:25;;;;;;;7.80;6.63;;;;;;;;;;6185651;23;20434;-70
2022/01/17 04:59:50;;;;;;;5.55;3.97;;;;;;;;;;6185782;23;20004;-70
2022/01/17 05:02:16;;;;;;;7.22;5.38;;;;;;;;;;6185502;23;20441;-70
2022/01/17 05:04:44;;;;;;;9.05;7.07;;;;;;;;;;6185596;23;20537;-70
2022/01/17 05:07:09;;;;;;;7.90;6.65;;;;;;;;;;6185508;23;20001;-70
2022/01/17 05:09:35;;;;;;;7.22;5.28;;;;;;;;;;6185786;23;20077;-70
2022/01/17 05:12:01;;;;;;;8.25;6.40;;;;;;;;;;6185695;23;20358;-71
2022/01/17 05:14:27;;;;;;;6.28;5.70;;;;;;;;;;6185863;23;20049;-70
2022/01/17 05:17:01;;;;;;;6.88;6.18;;;;;;;;;;6185421;23;20008;-70
2022/01/17 05:22:11;;;;;;;7.60;6.13;;;;;;;;;;6185653;23;20008;-72
2022/01/17 05:24:36;;;;;;;6.70;5.43;;;;;;;;;;6185917;23;20029;-72
2022/01/17 05:27:02;;;;;;;9.55;6.68;;;;;;;;;;6185547;23;20036;-72
2022/01/17 05:29:27;;;;;;;7.20;6.05;;;;;;;;;;6186098;23;19993;-72
2022/01/17 05:31:53;;;;;;;7.88;6.00;;;;;;;;;;6158995;23;20006;-72
2022/01/17 05:34:18;;;;;;;9.07;7.07;;;;;;;;;;6185788;23;20001;-72
2022/01/17 05:36:44;;;;;;;5.07;3.95;;;;;;;;;;6185330;23;20012;-73
2022/01/17 05:39:09;;;;;;;6.22;5.57;;;;;;;;;;6185118;23;19993;-73
2022/01/17 05:41:35;;;;;;;7.45;5.72;;;;;;;;;;6186309;23;20013;-72
2022/01/17 05:44:00;;;;;;;5.55;4.38;;;;;;;;;;6186958;23;20105;-73
2022/01/17 05:46:27;;;;;;;7.78;6.05;;;;;;;;;;6186445;23;20495;-72
2022/01/17 05:48:52;;;;;;;6.15;5.47;;;;;;;;;;6186911;23;20335;-71
2022/01/17 05:51:18;;;;;;;8.07;5.25;;;;;;;;;;6187061;23;20001;-71
2022/01/17 05:53:43;;;;;;;7.80;6.20;;;;;;;;;;6186902;23;19994;-70
2022/01/17 05:56:09;;;;;;;7.47;4.97;;;;;;;;;;6187589;23;20437;-66
2022/01/17 05:58:34;;;;;;;7.97;5.65;;;;;;;;;;6187189;23;20406;-66
2022/01/17 06:01:00;;;;;;;5.32;4.50;;;;;;;;;;6187122;23;20005;-65
2022/01/17 06:03:25;;;;;;;9.70;7.15;;;;;;;;;;6187701;23;20313;-66
2022/01/17 06:05:52;;;;;;;10.10;6.32;;;;;;;;;;6186882;23;20055;-65
2022/01/17 06:08:17;;;;;;;7.28;5.40;;;;;;;;;;6187162;23;20323;-65
2022/01/17 06:10:42;;;;;;;9.57;6.45;;;;;;;;;;6187024;23;20064;-65
2022/01/17 06:13:08;;;;;;;5.57;4.97;;;;;;;;;;6187220;23;20009;-65
2022/01/17 06:15:34;;;;;;;10.20;5.40;;;;;;;;;;6186784;23;20426;-65
2022/01/17 06:17:59;;;;;;;8.30;5.90;;;;;;;;;;6187305;23;20004;-65
2022/01/17 06:20:24;;;;;;;7.13;5.70;;;;;;;;;;6187204;23;20009;-65
2022/01/17 06:22:51;;;;;;;5.90;4.88;;;;;;;;;;6186839;23;20333;-67
2022/01/17 06:25:16;;;;;;;7.68;6.00;;;;;;;;;;6186740;23;20013;-67
2022/01/17 06:27:42;;;;;;;9.55;6.63;;;;;;;;;;6186858;23;20080;-66
2022/01/17 06:30:08;;;;;;;6.95;5.40;;;;;;;;;;6186983;23;20006;-66
2022/01/17 06:32:33;;;;;;;4.60;3.63;;;;;;;;;;6186842;23;20051;-66
2022/01/17 06:34:59;;;;;;;8.27;5.35;;;;;;;;;;6186675;23;20430;-66
2022/01/17 06:37:25;;;;;;;7.45;5.40;;;;;;;;;;6186541;23;20028;-66
2022/01/17 06:39:51;;;;;;;6.65;4.97;;;;;;;;;;6186805;23;20417;-66
2022/01/17 06:42:18;;;;;;;6.18;5.13;;;;;;;;;;6186231;23;20116;-66
2022/01/17 06:44:43;;;;;;;6.57;5.07;;;;;;;;;;6160884;23;20008;-67
2022/01/17 06:47:09;;;;;;;7.32;5.50;;;;;;;;;;6186816;23;20325;-67
2022/01/17 06:49:34;;;;;;;3.05;2.10;;;;;;;;;;6187000;23;20001;-67
2022/01/17 06:52:00;;;;;;;6.35;5.18;;;;;;;;;;6186474;23;20008;-65
2022/01/17 06:54:26;;;;;;;6.90;3.50;;;;;;;;;;6186621;23;20429;-65
2022/01/17 06:56:51;;;;;;;3.13;1.48;;;;;;;;;;6186805;23;19993;-65
2022/01/17 06:59:17;;;;;;;4.35;3.55;;;;;;;;;;6186665;23;20363;-65
2022/01/17 07:01:43;;;;;;;3.85;3.47;;;;;;;;;;6186462;23;19997;-65
2022/01/17 07:04:09;;;;;;;4.72;3.47;;;;;;;;;;6186653;23;20349;-65
2022/01/17 07:06:34;;;;;;;5.55;4.13;;;;;;;;;;6187032;23;20004;-65
2022/01/17 07:09:00;;;;;;;3.97;3.40;;;;;;;;;;6186430;23;20032;-66
2022/01/17 07:11:26;;;;;;;5.05;3.70;;;;;;;;;;6185959;23;20329;-65
2022/01/17 07:13:52;;;;;;;4.07;3.67;;;;;;;;;;6186387;23;20001;-64
2022/01/17 07:16:17;;;;;;;4.88;4.07;;;;;;;;;;6186333;23;20024;-64
2022/01/17 07:18:43;;;;;;;4.18;3.67;;;;;;;;;;6186165;23;20005;-65
2022/01/17 07:21:08;;;;;;;1.80;1.63;;;;;;;;;;6186198;23;20000;-65
2022/01/17 07:23:33;;;;;;;1.83;1.52;;;;;;;;;;6186181;23;20441;-65
2022/01/17 07:25:59;;;;;;;5.68;3.08;;;;;;;;;;6186132;23;20076;-65
2022/01/17 07:28:24;;;;;;;1.88;1.70;;;;;;;;;;6185868;23;20009;-66
2022/01/17 07:30:50;;;;;;;1.63;1.50;;;;;;;;;;6185888;23;19993;-66
2022/01/17 07:33:16;;;;;;;4.10;3.40;;;;;;;;;;6185839;23;20005;-66
2022/01/17 07:35:44;;;;;;;3.92;3.22;;;;;;;;;;6159481;23;20326;-66
2022/01/17 07:38:10;;;;;;;5.15;4.68;;;;;;;;;;6185502;23;20041;-67
2022/01/17 07:40:35;;;;;;;6.80;5.00;;;;;;;;;;6159329;23;20021;-67
2022/01/17 07:43:00;;;;;;;2.90;2.70;;;;;;;;;;6186089;23;20438;-67
2022/01/17 07:45:27;;;;;;;3.55;2.85;;;;;;;;;;6185916;23;20012;-67
2022/01/17 07:50:20;;;;;;;3.85;3.13;;;;;;;;;;6185809;23;20020;-66
2022/01/17 07:52:47;;;;;;;4.13;3.30;;;;;;;;;;6185812;23;20334;-67
2022/01/17 07:55:13;;;;;;;1.80;1.58;;;;;;;;;;6185547;23;20004;-66
2022/01/17 07:57:38;;;;;;;6.25;4.78;;;;;;;;;;6185652;23;20036;-67
2022/01/17 08:00:05;;;;;;;6.35;4.68;;;;;;;;;;6185721;23;19997;-66
2022/01/17 08:02:32;;;;;;;6.07;4.32;;;;;;;;;;6185767;23;20012;-66
2022/01/17 08:04:57;;;;;;;6.18;4.65;;;;;;;;;;6159361;23;20047;-66
2022/01/17 08:07:23;;;;;;;6.03;4.28;;;;;;;;;;6185613;23;20005;-66
2022/01/17 08:09:48;;;;;;;3.40;3.10;;;;;;;;;;6185572;23;20009;-66
2022/01/17 08:12:13;;;;;;;5.10;3.42;;;;;;;;;;6185489;23;20001;-70
2022/01/17 08:14:40;;;;;;;5.90;2.33;;;;;;;;;;6185592;23;19997;-65
2022/01/17 08:17:06;;;;;;;8.48;5.70;;;;;;;;;;6185608;23;20009;-66
2022/01/17 08:19:31;;;;;;;4.03;3.25;;;;;;;;;;6185610;23;20314;-66
2022/01/17 08:21:57;;;;;;;4.18;3.15;;;;;;;;;;6185578;23;20529;-66
2022/01/17 08:24:22;;;;;;;5.47;3.95;;;;;;;;;;6185571;23;20025;-66
2022/01/17 08:26:50;;;;;;;1.67;1.58;;;;;;;;;;6185510;23;20013;-66
2022/01/17 08:29:16;;;;;;;5.38;3.70;;;;;;;;;;6185683;23;20004;-66
2022/01/17 08:31:46;;;;;;;4.60;3.30;;;;;;;;;;6185304;23;20005;-68
2022/01/17 08:34:12;;;;;;;2.38;1.75;;;;;;;;;;6185790;23;20124;-65
2022/01/17 08:36:37;;;;;;;5.22;3.55;;;;;;;;;;6185548;23;20367;-66
2022/01/17 08:39:03;;;;;;;4.80;3.40;;;;;;;;;;6185603;23;20011;-66
2022/01/17 08:41:28;;;;;;;3.03;2.35;;;;;;;;;;6185059;23;20511;-66
2022/01/17 08:43:54;;;;;;;3.08;2.42;;;;;;;;;;6185693;23;20009;-66
2022/01/17 08:46:19;;;;;;;1.83;1.65;;;;;;;;;;6159452;23;20005;-66
2022/01/17 08:48:45;;;;;;;2.88;2.50;;;;;;;;;;6159266;23;20032;-66
2022/01/17 08:51:11;;;;;;;4.28;3.88;;;;;;;;;;6185540;23;20433;-66
2022/01/17 08:53:36;;;;;;;1.70;1.30;;;;;;;;;;6185494;23;20032;-66
2022/01/17 08:56:02;;;;;;;4.05;2.63;;;;;;;;;;6159151;23;20374;-66
2022/01/17 08:58:28;;;;;;;3.08;2.78;;;;;;;;;;6185295;23;20496;-65
2022/01/17 09:00:54;;;;;;;3.55;3.25;;;;;;;;;;6185397;23;20095;-66
2022/01/17 09:03:21;;;;;;;3.35;2.90;;;;;;;;;;6185361;23;20092;-66
2022/01/17 09:05:48;;;;;;;2.33;2.10;;;;;;;;;;6185412;23;19997;-66
2022/01/17 09:08:13;;;;;;;4.53;3.53;;;;;;;;;;6185215;23;20015;-66
2022/01/17 09:10:39;;;;;;;1.55;1.42;;;;;;;;;;6185371;23;20064;-66
2022/01/17 09:13:04;;;;;;;5.68;4.82;;;;;;;;;;6185307;23;20059;-66
2022/01/17 09:15:30;;;;;;;2.20;2.00;;;;;;;;;;6186379;23;19997;-67
2022/01/17 09:17:56;;;;;;;2.50;1.55;;;;;;;;;;6187508;23;20075;-66
2022/01/17 09:20:21;;;;;;;4.22;3.28;;;;;;;;;;6187346;23;20013;-67
2022/01/17 09:22:46;;;;;;;1.25;1.23;;;;;;;;;;6187257;23;20040;-66
2022/01/17 09:25:12;;;;;;;4.00;3.53;;;;;;;;;;6187247;23;20337;-66
2022/01/17 09:27:37;;;;;;;6.38;4.13;;;;;;;;;;6186766;23;20441;-66
2022/01/17 09:30:04;;;;;;;4.38;3.97;;;;;;;;;;6187275;23;20430;-66
2022/01/17 09:32:29;;;;;;;2.05;1.90;;;;;;;;;;6187255;23;20009;-66
2022/01/17 09:34:55;;;;;;;1.77;1.67;;;;;;;;;;6187177;23;19997;-66
2022/01/17 09:37:20;;;;;;;3.90;2.95;;;;;;;;;;6160731;23;20009;-67
2022/01/17 09:39:45;;;;;;;3.65;2.92;;;;;;;;;;6187048;23;19997;-66
2022/01/17 09:42:12;;;;;;;4.60;2.90;;;;;;;;;;6186819;23;20453;-66
2022/01/17 09:44:38;;;;;;;3.03;2.78;;;;;;;;;;6187078;23;20032;-66
2022/01/17 09:47:07;;;;;;;1.88;1.77;;;;;;;;;;6187055;23;20434;-66
2022/01/17 09:49:41;;;;;;;5.80;3.83;;;;;;;;;;6187184;23;20001;-66
2022/01/17 09:52:34;;;;;;;3.30;2.72;;;;;;;;;;6187166;23;20026;-66
2022/01/17 09:55:05;;;;;;;5.50;1.42;;;;;;;;;;6160683;23;20005;-66
2022/01/17 09:57:33;;;;;;;5.15;3.88;;;;;;;;;;6186811;23;20323;-66
2022/01/17 09:59:58;;;;;;;1.52;1.42;;;;;;;;;;6186973;23;20047;-66
2022/01/17 10:02:24;;;;;;;3.20;2.47;;;;;;;;;;6187030;23;20437;-66
2022/01/17 10:04:50;;;;;;;4.25;3.13;;;;;;;;;;6187018;23;20318;-66
2022/01/17 10:07:16;;;;;;;2.25;2.05;;;;;;;;;;6186955;23;20012;-66
2022/01/17 10:09:52;;;;;;;1.10;1.02;;;;;;;;;;6160469;23;19997;-66
2022/01/17 10:12:17;;;;;;;1.75;1.42;;;;;;;;;;6186824;23;20055;-66
2022/01/17 10:14:44;;;;;;;3.05;1.88;;;;;;;;;;6186750;23;19997;-65
2022/01/17 10:17:11;;;;;;;2.60;1.50;;;;;;;;;;6186510;23;20016;-65
2022/01/17 10:19:37;;;;;;;3.17;2.10;;;;;;;;;;6186840;23;20480;-68
2022/01/17 10:22:08;;;;;;;2.13;1.95;;;;;;;;;;6186813;23;20009;-67
2022/01/17 10:35:31;;;;;;;2.50;1.95;;;;;;;;;;6186860;23;20001;-71
2022/01/17 10:37:58;;;;;;;2.00;1.90;;;;;;;;;;6186283;23;20009;-71
2022/01/17 10:40:24;;;;;;;2.42;1.60;;;;;;;;;;6159985;23;20330;-71
2022/01/17 10:42:50;;;;;;;2.20;1.73;;;;;;;;;;6160496;23;20019;-71
2022/01/17 10:45:24;;;;;;;2.10;1.80;;;;;;;;;;6186497;23;20032;-71
2022/01/17 10:47:51;;;;;;;1.35;1.25;;;;;;;;;;6186360;23;20013;-71
2022/01/17 10:50:18;;;;;;;1.30;0.93;;;;;;;;;;6186471;23;20072;-70
2022/01/17 10:52:49;;;;;;;1.92;1.83;;;;;;;;;;6135547;23;20016;-71
2022/01/17 10:55:17;;;;;;;1.67;1.58;;;;;;;;;;6186227;23;20349;-67
2022/01/17 10:57:45;;;;;;;2.00;1.45;;;;;;;;;;6186288;23;20001;-67
2022/01/17 11:00:31;;;;;;;1.95;1.45;;;;;;;;;;6186326;23;20009;-67
2022/01/17 11:02:57;;;;;;;1.52;1.33;;;;;;;;;;6159344;23;20475;-67
2022/01/17 11:05:23;;;;;;;1.40;1.30;;;;;;;;;;6186317;23;20008;-67
2022/01/17 11:07:52;;;;;;;1.58;1.48;;;;;;;;;;6186165;23;20342;-67
2022/01/17 11:10:17;;;;;;;1.70;1.60;;;;;;;;;;6186315;23;20364;-67
2022/01/17 11:12:43;;;;;;;1.17;1.17;;;;;;;;;;6186153;23;20047;-67
2022/01/17 11:15:10;;;;;;;2.13;1.92;;;;;;;;;;6186098;23;20100;-72
2022/01/17 11:17:38;;;;;;;0.60;0.60;;;;;;;;;;6185824;23;20578;-73
2022/01/17 11:20:08;;;;;;;2.10;1.90;;;;;;;;;;6186360;23;20108;-73
2022/01/17 11:22:35;;;;;;;2.15;2.03;;;;;;;;;;6186215;23;20138;-74
2022/01/17 11:25:01;;;;;;;1.90;1.42;;;;;;;;;;6160089;23;19997;-75
2022/01/17 11:27:27;;;;;;;2.58;2.03;;;;;;;;;;6186052;23;20013;-75
2022/01/17 11:29:52;;;;;;;1.95;1.73;;;;;;;;;;6186219;23;19997;-74
2022/01/17 11:32:18;;;;;;;2.33;2.13;;;;;;;;;;6159826;23;20445;-74
2022/01/17 11:34:43;;;;;;;2.85;2.15;;;;;;;;;;6185881;23;20004;-75
2022/01/17 11:37:09;;;;;;;2.03;1.85;;;;;;;;;;6185746;23;20425;-75
2022/01/17 11:39:43;;;;;;;1.95;1.80;;;;;;;;;;6159599;23;19997;-74
2022/01/17 11:42:27;;;;;;;3.10;1.73;;;;;;;;;;6185717;23;20017;-74
2022/01/17 11:44:52;;;;;;;1.95;1.73;;;;;;;;;;6159566;23;20055;-74
2022/01/17 11:47:38;;;;;;;2.38;2.17;;;;;;;;;;6185690;23;20048;-74
2022/01/17 11:50:22;;;;;;;3.70;2.33;;;;;;;;;;6186006;23;20000;-74
2022/01/17 11:52:47;;;;;;;3.42;2.35;;;;;;;;;;6159609;23;20009;-74
2022/01/17 11:55:33;;;;;;;2.65;2.45;;;;;;;;;;6159654;23;20012;-74
2022/01/17 11:58:18;;;;;;;13.95;1.65;;;;;;;;;;6185605;23;20009;-74
2022/01/17 12:00:44;;;;;;;2.60;0.90;;;;;;;;;;6159533;23;20391;-74
2022/01/17 12:03:19;;;;;;;1.90;1.20;;;;;;;;;;6185644;23;20032;-74
2022/01/17 12:05:45;;;;;;;0.77;0.70;;;;;;;;;;6185766;23;20040;-74
2022/01/17 12:08:13;;;;;;;0.90;0.70;;;;;;;;;;6159316;23;19997;-74
2022/01/17 12:10:40;;;;;;;1.58;1.48;;;;;;;;;;6185765;23;20372;-74
2022/01/17 12:13:23;;;;;;;25.58;22.77;;;;;;;;;;6185170;23;19997;-74
2022/01/17 12:15:54;;;;;;;3.30;3.00;;;;;;;;;;6185635;23;20012;-74
2022/01/17 12:18:50;;;;;;;4.20;2.42;;;;;;;;;;6159217;23;20012;-74
2022/01/17 12:21:21;;;;;;;66.65;37.42;;;;;;;;;;6128219;23;20020;-74
2022/01/17 12:23:47;;;;;;;50.45;28.70;;;;;;;;;;6159457;23;20445;-74
2022/01/17 12:26:31;;;;;;;121.50;66.68;;;;;;;;;;6159253;23;20036;-74
2022/01/17 12:28:58;;;;;;;250.25;108.85;;;;;;;;;;6185660;23;20468;-75
2022/01/17 12:31:43;;;;;;;220.68;97.63;;;;;;;;;;6186449;23;20024;-74
2022/01/17 12:34:23;;;;;;;115.57;53.72;;;;;;;;;;6159715;23;20001;-74
2022/01/17 12:36:49;;;;;;;175.80;71.05;;;;;;;;;;6185868;23;20005;-74
2022/01/17 12:39:17;;;;;;;266.45;94.03;;;;;;;;;;6159813;23;20406;-74
2022/01/17 12:41:44;;;;;;;100.78;37.05;;;;;;;;;;6184839;23;20017;-74
2022/01/17 12:44:18;;;;;;;21.42;8.90;;;;;;;;;;6185300;23;20337;-74
2022/01/17 12:46:45;;;;;;;120.10;40.10;;;;;;;;;;6185465;23;20005;-74
2022/01/17 12:49:11;;;;;;;68.78;24.13;;;;;;;;;;6159098;23;20013;-74
2022/01/17 12:51:44;;;;;;;32.50;13.35;;;;;;;;;;6187538;23;20330;-74
2022/01/17 12:54:12;;;;;;;12.20;6.03;;;;;;;;;;6187274;23;20001;-75
2022/01/17 12:56:45;;;;;;;19.63;9.15;;;;;;;;;;6187483;23;20326;-74
2022/01/17 12:59:11;;;;;;;50.70;18.63;;;;;;;;;;6187546;23;20013;-74
2022/01/17 13:01:42;;;;;;;43.45;15.88;;;;;;;;;;6161096;23;20096;-74
2022/01/17 13:04:11;;;;;;;14.82;7.80;;;;;;;;;;6187447;23;20012;-74
2022/01/17 13:06:38;;;;;;;8.60;5.10;;;;;;;;;;6160382;23;20075;-74
2022/01/17 13:09:07;;;;;;;5.68;3.85;;;;;;;;;;6187188;23;20009;-74
2022/01/17 13:11:36;;;;;;;5.07;3.53;;;;;;;;;;6187336;23;20012;-74
2022/01/17 13:14:02;;;;;;;5.82;3.92;;;;;;;;;;6187253;23;20001;-73
2022/01/17 13:16:31;;;;;;;7.45;4.15;;;;;;;;;;6187138;23;20513;-75
2022/01/17 13:18:57;;;;;;;4.05;3.20;;;;;;;;;;6161142;23;20005;-74
2022/01/17 13:21:22;;;;;;;7.57;4.35;;;;;;;;;;6187261;23;20004;-74
2022/01/17 13:23:56;;;;;;;6.72;4.22;;;;;;;;;;6187268;23;20009;-74
2022/01/17 13:26:24;;;;;;;9.43;4.75;;;;;;;;;;6136294;23;20446;-74
2022/01/17 13:28:50;;;;;;;8.35;5.00;;;;;;;;;;6187241;23;20008;-74
2022/01/17 13:31:16;;;;;;;7.30;4.32;;;;;;;;;;6136359;23;20434;-71
2022/01/17 13:33:42;;;;;;;6.60;4.07;;;;;;;;;;6187355;23;19993;-74
2022/01/17 13:36:07;;;;;;;10.23;5.32;;;;;;;;;;6187183;23;20054;-74
2022/01/17 13:38:33;;;;;;;233.43;61.92;;;;;;;;;;6187146;23;20120;-74
2022/01/17 13:41:02;;;;;;;66.70;19.40;;;;;;;;;;6186265;23;20020;-74
2022/01/17 13:43:28;;;;;;;5.80;3.72;;;;;;;;;;6187052;23;20013;-71
2022/01/17 13:45:55;;;;;;;5.22;3.90;;;;;;;;;;6187182;23;20079;-72
2022/01/17 13:48:20;;;;;;;9.70;5.10;;;;;;;;;;6187067;23;20032;-71
2022/01/17 13:50:46;;;;;;;24.13;7.80;;;;;;;;;;6187027;23;19993;-72
2022/01/17 13:53:12;;;;;;;10.50;5.00;;;;;;;;;;6160705;23;20001;-72
2022/01/17 13:55:39;;;;;;;6.10;3.42;;;;;;;;;;6187015;23;20001;-71
2022/01/17 13:58:07;;;;;;;5.88;3.10;;;;;;;;;;6186946;23;20009;-71
2022/01/17 14:00:51;;;;;;;5.47;4.28;;;;;;;;;;6160446;23;20340;-71
2022/01/17 14:03:18;;;;;;;7.05;4.50;;;;;;;;;;6186890;23;20039;-71
2022/01/17 14:05:48;;;;;;;111.00;34.05;;;;;;;;;;6160858;23;20036;-71
2022/01/17 14:08:30;;;;;;;8.07;4.05;;;;;;;;;;6186950;23;20009;-71
2022/01/17 14:10:58;;;;;;;6.85;3.78;;;;;;;;;;6186835;23;20040;-71
2022/01/17 14:13:43;;;;;;;11.38;6.03;;;;;;;;;;6187195;23;20425;-71
2022/01/17 14:16:28;;;;;;;10.68;4.55;;;;;;;;;;6186561;23;20097;-71
2022/01/17 14:18:53;;;;;;;29.83;11.43;;;;;;;;;;6187387;23;20425;-71
2022/01/17 14:21:22;;;;;;;6.13;4.13;;;;;;;;;;6160818;23;20011;-71
2022/01/17 14:23:47;;;;;;;5.35;3.65;;;;;;;;;;6187098;23;20017;-71
2022/01/17 14:26:27;;;;;;;16.30;7.22;;;;;;;;;;6187319;23;20303;-71
2022/01/17 14:28:52;;;;;;;34.38;14.38;;;;;;;;;;6186672;23;20012;-71
2022/01/17 14:31:18;;;;;;;5.82;4.20;;;;;;;;;;6186949;23;19997;-71
2022/01/17 14:33:48;;;;;;;4.80;3.15;;;;;;;;;;6186940;23;20088;-71
2022/01/17 14:36:16;;;;;;;4.15;3.05;;;;;;;;;;6186632;23;20036;-71
2022/01/17 14:38:52;;;;;;;4.45;3.20;;;;;;;;;;6160339;23;20045;-71
2022/01/17 14:41:36;;;;;;;5.57;2.95;;;;;;;;;;6186136;23;20016;-71
2022/01/17 14:44:13;;;;;;;6.20;3.63;;;;;;;;;;6186789;23;20005;-71
2022/01/17 14:46:46;;;;;;;7.38;4.03;;;;;;;;;;6186741;23;20032;-71
2022/01/17 14:49:18;;;;;;;9.43;5.13;;;;;;;;;;6186678;23;20016;-71
2022/01/17 14:51:44;;;;;;;9.60;5.30;;;;;;;;;;6186817;23;20075;-71
2022/01/17 14:54:13;;;;;;;8.73;4.72;;;;;;;;;;6186412;23;19993;-71
2022/01/17 15:02:22;;;;;;;4.85;3.00;;;;;;;;;;6186580;23;20088;-70
2022/01/17 15:04:41;;;;;;;3.47;2.88;;;;;;;;;;6185879;23;20462;-70
2022/01/17 15:07:09;;;;;;;6.25;3.40;;;;;;;;;;6186072;23;20029;-70
2022/01/17 15:09:35;;;;;;;5.60;3.20;;;;;;;;;;6186181;23;20012;-70
2022/01/17 15:12:00;;;;;;;4.30;2.88;;;;;;;;;;6186069;23;19997;-71